createdAt,value
2018-09-17T00:00:16.431Z,81.29
2018-09-17T00:01:16.608Z,81.67
2018-09-17T00:02:16.791Z,81.48
2018-09-17T00:03:16.966Z,81.58
2018-09-17T00:04:17.141Z,81.58
2018-09-17T00:05:17.310Z,81.77
2018-09-17T00:06:17.490Z,81.38
2018-09-17T00:07:17.663Z,81.58
2018-09-17T00:08:17.839Z,81.67
2018-09-17T00:09:18.019Z,81.67
2018-09-17T00:10:18.203Z,81.67
2018-09-17T00:11:18.373Z,81.58
2018-09-17T00:12:18.555Z,81.29
2018-09-17T00:13:18.738Z,81.10
2018-09-17T00:14:18.916Z,81.20
2018-09-17T00:15:19.089Z,81.38
2018-09-17T00:16:19.270Z,81.38
2018-09-17T00:17:19.454Z,81.67
2018-09-17T00:18:19.630Z,81.48
2018-09-17T00:19:19.811Z,81.20
2018-09-17T00:20:20.000Z,82.06
2018-09-17T00:21:20.178Z,81.38
2018-09-17T00:22:20.365Z,81.86
2018-09-17T00:23:20.544Z,82.15
2018-09-17T00:24:20.728Z,81.92
2018-09-17T00:25:20.912Z,82.11
2018-09-17T00:26:21.096Z,82.34
2018-09-17T00:27:21.269Z,82.43
2018-09-17T00:28:21.447Z,82.20
2018-09-17T00:29:21.639Z,82.30
2018-09-17T00:30:21.809Z,82.20
2018-09-17T00:31:21.988Z,82.01
2018-09-17T00:32:22.166Z,82.40
2018-09-17T00:33:22.339Z,82.49
2018-09-17T00:34:22.525Z,82.87
2018-09-17T00:35:22.718Z,82.78
2018-09-17T00:36:22.895Z,83.16
2018-09-17T00:37:23.077Z,82.97
2018-09-17T00:38:23.252Z,82.40
2018-09-17T00:39:23.421Z,82.78
2018-09-17T00:40:23.598Z,82.78
2018-09-17T00:41:23.779Z,82.68
2018-09-17T00:42:23.954Z,82.59
2018-09-17T00:43:24.141Z,83.06
2018-09-17T00:44:24.329Z,83.06
2018-09-17T00:45:24.500Z,82.97
2018-09-17T00:46:24.675Z,83.06
2018-09-17T00:47:24.852Z,83.25
2018-09-17T00:48:25.025Z,83.16
2018-09-17T00:49:25.200Z,82.87
2018-09-17T00:50:25.387Z,82.87
2018-09-17T00:51:25.565Z,82.68
2018-09-17T00:52:25.747Z,83.06
2018-09-17T00:53:25.915Z,83.25
2018-09-17T00:54:26.092Z,82.87
2018-09-17T00:55:26.269Z,83.54
2018-09-17T00:56:26.444Z,83.92
2018-09-17T00:57:26.624Z,83.25
2018-09-17T00:58:26.804Z,83.35
2018-09-17T00:59:26.982Z,82.87
2018-09-17T01:00:27.143Z,83.54
2018-09-17T01:01:27.334Z,83.35
2018-09-17T01:02:27.507Z,83.16
2018-09-17T01:03:27.677Z,83.25
2018-09-17T01:04:27.860Z,83.83
2018-09-17T01:05:28.038Z,83.16
2018-09-17T01:06:28.218Z,83.64
2018-09-17T01:07:28.389Z,83.44
2018-09-17T01:08:28.596Z,83.64
2018-09-17T01:09:28.742Z,83.78
2018-09-17T01:10:28.915Z,84.40
2018-09-17T01:11:29.092Z,83.59
2018-09-17T01:12:29.273Z,83.59
2018-09-17T01:13:29.447Z,83.40
2018-09-17T01:14:29.624Z,83.40
2018-09-17T01:15:29.805Z,83.50
2018-09-17T01:16:29.985Z,83.40
2018-09-17T01:17:30.156Z,84.36
2018-09-17T01:18:30.334Z,83.97
2018-09-17T01:19:30.514Z,84.55
2018-09-17T01:20:30.693Z,84.45
2018-09-17T01:21:30.868Z,84.36
2018-09-17T01:22:31.049Z,83.78
2018-09-17T01:23:31.220Z,83.83
2018-09-17T01:24:31.394Z,83.64
2018-09-17T01:25:31.573Z,83.50
2018-09-17T01:26:31.760Z,83.40
2018-09-17T01:27:31.929Z,83.59
2018-09-17T01:28:32.117Z,83.78
2018-09-17T01:29:32.304Z,83.50
2018-09-17T01:30:32.505Z,83.59
2018-09-17T01:31:32.686Z,84.45
2018-09-17T01:32:32.836Z,84.16
2018-09-17T01:33:33.016Z,84.16
2018-09-17T01:34:33.174Z,84.45
2018-09-17T01:35:33.344Z,84.55
2018-09-17T01:36:33.524Z,84.45
2018-09-17T01:37:33.712Z,84.07
2018-09-17T01:38:33.884Z,84.45
2018-09-17T01:39:34.061Z,84.26
2018-09-17T01:40:34.232Z,84.92
2018-09-17T01:41:34.413Z,84.64
2018-09-17T01:42:34.587Z,84.45
2018-09-17T01:43:34.764Z,84.26
2018-09-17T01:44:34.944Z,84.83
2018-09-17T01:45:35.119Z,84.45
2018-09-17T01:46:35.305Z,84.26
2018-09-17T01:47:35.480Z,84.45
2018-09-17T01:48:35.658Z,84.07
2018-09-17T01:49:35.839Z,84.26
2018-09-17T01:50:36.016Z,84.26
2018-09-17T01:51:36.197Z,84.36
2018-09-17T01:52:36.374Z,84.45
2018-09-17T01:53:36.554Z,84.26
2018-09-17T01:54:36.729Z,84.64
2018-09-17T01:55:36.898Z,84.45
2018-09-17T01:56:37.081Z,84.55
2018-09-17T01:57:37.260Z,84.26
2018-09-17T01:58:37.442Z,84.26
2018-09-17T01:59:37.625Z,84.16
2018-09-17T02:00:37.814Z,84.16
2018-09-17T02:01:37.989Z,84.26
2018-09-17T02:02:38.161Z,84.16
2018-09-17T02:03:38.405Z,84.07
2018-09-17T02:04:38.449Z,83.78
2018-09-17T02:05:38.626Z,84.07
2018-09-17T02:06:38.802Z,83.97
2018-09-17T02:07:38.984Z,84.07
2018-09-17T02:08:39.198Z,84.26
2018-09-17T02:09:39.333Z,84.31
2018-09-17T02:10:39.517Z,84.12
2018-09-17T02:11:39.686Z,84.92
2018-09-17T02:12:39.865Z,84.79
2018-09-17T02:13:40.039Z,84.69
2018-09-17T02:14:40.213Z,84.69
2018-09-17T02:15:40.386Z,84.41
2018-09-17T02:16:40.565Z,84.60
2018-09-17T02:17:40.734Z,84.69
2018-09-17T02:18:40.912Z,85.27
2018-09-17T02:19:41.091Z,85.46
2018-09-17T02:20:41.267Z,85.17
2018-09-17T02:21:41.447Z,85.64
2018-09-17T02:22:41.616Z,85.36
2018-09-17T02:23:41.788Z,85.46
2018-09-17T02:24:41.956Z,85.36
2018-09-17T02:25:42.127Z,85.46
2018-09-17T02:26:42.312Z,85.36
2018-09-17T02:27:42.485Z,84.88
2018-09-17T02:28:42.657Z,85.46
2018-09-17T02:29:42.831Z,85.17
2018-09-17T02:30:43.008Z,84.88
2018-09-17T02:31:43.184Z,85.46
2018-09-17T02:32:43.358Z,85.08
2018-09-17T02:33:43.529Z,85.17
2018-09-17T02:34:43.703Z,85.36
2018-09-17T02:35:43.876Z,85.55
2018-09-17T02:36:44.054Z,85.46
2018-09-17T02:37:44.238Z,85.64
2018-09-17T02:38:44.411Z,85.36
2018-09-17T02:39:44.592Z,85.46
2018-09-17T02:40:44.763Z,85.46
2018-09-17T02:41:44.946Z,85.36
2018-09-17T02:42:45.118Z,85.27
2018-09-17T02:43:45.297Z,85.27
2018-09-17T02:44:45.472Z,85.64
2018-09-17T02:45:45.657Z,85.46
2018-09-17T02:46:45.838Z,85.27
2018-09-17T02:47:46.008Z,85.36
2018-09-17T02:48:46.183Z,85.08
2018-09-17T02:49:46.357Z,85.27
2018-09-17T02:50:46.537Z,85.36
2018-09-17T02:51:46.711Z,85.36
2018-09-17T02:52:46.887Z,85.46
2018-09-17T02:53:47.067Z,85.84
2018-09-17T02:54:47.258Z,85.64
2018-09-17T02:55:47.435Z,85.36
2018-09-17T02:56:47.613Z,85.80
2018-09-17T02:57:47.792Z,85.99
2018-09-17T02:58:47.971Z,85.80
2018-09-17T02:59:48.160Z,86.65
2018-09-17T03:00:48.339Z,86.36
2018-09-17T03:01:48.516Z,86.55
2018-09-17T03:02:48.697Z,86.84
2018-09-17T03:03:48.866Z,86.51
2018-09-17T03:04:49.046Z,86.55
2018-09-17T03:05:49.230Z,86.75
2018-09-17T03:06:49.401Z,86.65
2018-09-17T03:07:49.583Z,86.79
2018-09-17T03:08:49.765Z,86.03
2018-09-17T03:09:49.945Z,86.12
2018-09-17T03:10:50.144Z,86.03
2018-09-17T03:11:50.337Z,85.36
2018-09-17T03:12:50.504Z,85.55
2018-09-17T03:13:50.681Z,85.89
2018-09-17T03:14:50.857Z,86.18
2018-09-17T03:15:51.034Z,85.93
2018-09-17T03:16:51.205Z,86.03
2018-09-17T03:17:51.385Z,86.36
2018-09-17T03:18:51.564Z,86.36
2018-09-17T03:19:51.744Z,86.55
2018-09-17T03:20:51.922Z,86.55
2018-09-17T03:21:52.105Z,86.55
2018-09-17T03:22:52.281Z,86.84
2018-09-17T03:23:52.469Z,86.36
2018-09-17T03:24:52.645Z,86.32
2018-09-17T03:25:52.826Z,86.22
2018-09-17T03:26:53.001Z,86.32
2018-09-17T03:27:53.182Z,85.74
2018-09-17T03:28:53.356Z,85.51
2018-09-17T03:29:53.533Z,85.17
2018-09-17T03:30:53.714Z,85.22
2018-09-17T03:31:53.891Z,85.22
2018-09-17T03:32:54.074Z,85.80
2018-09-17T03:33:54.253Z,85.89
2018-09-17T03:34:54.432Z,86.18
2018-09-17T03:35:54.603Z,85.99
2018-09-17T03:36:54.781Z,86.65
2018-09-17T03:37:54.962Z,86.75
2018-09-17T03:38:55.135Z,86.46
2018-09-17T03:39:55.319Z,86.65
2018-09-17T03:40:55.485Z,86.84
2018-09-17T03:41:55.659Z,86.75
2018-09-17T03:42:55.837Z,86.65
2018-09-17T03:43:56.013Z,87.23
2018-09-17T03:44:56.196Z,87.41
2018-09-17T03:45:56.384Z,87.03
2018-09-17T03:46:56.552Z,87.23
2018-09-17T03:47:56.731Z,87.32
2018-09-17T03:48:56.907Z,87.13
2018-09-17T03:49:57.084Z,87.41
2018-09-17T03:50:57.269Z,87.51
2018-09-17T03:51:57.468Z,88.18
2018-09-17T03:52:57.651Z,87.98
2018-09-17T03:53:57.841Z,87.32
2018-09-17T03:54:58.022Z,87.51
2018-09-17T03:55:58.195Z,87.41
2018-09-17T03:56:58.414Z,86.36
2018-09-17T03:57:58.550Z,86.36
2018-09-17T03:58:58.736Z,86.18
2018-09-17T03:59:58.920Z,85.99
2018-09-17T04:00:59.097Z,85.89
2018-09-17T04:01:59.266Z,85.99
2018-09-17T04:02:59.443Z,86.36
2018-09-17T04:03:59.624Z,85.89
2018-09-17T04:04:59.806Z,85.80
2018-09-17T04:05:59.994Z,85.99
2018-09-17T04:07:00.178Z,85.80
2018-09-17T04:08:00.343Z,85.84
2018-09-17T04:09:00.530Z,84.94
2018-09-17T04:10:00.714Z,85.22
2018-09-17T04:11:00.900Z,85.36
2018-09-17T04:12:01.068Z,85.36
2018-09-17T04:13:01.251Z,85.27
2018-09-17T04:14:01.428Z,84.98
2018-09-17T04:15:01.595Z,85.08
2018-09-17T04:16:01.769Z,84.98
2018-09-17T04:17:01.946Z,84.88
2018-09-17T04:18:02.129Z,84.60
2018-09-17T04:19:02.306Z,84.60
2018-09-17T04:20:02.483Z,84.50
2018-09-17T04:21:02.669Z,84.94
2018-09-17T04:22:02.840Z,84.69
2018-09-17T04:23:03.067Z,84.79
2018-09-17T04:24:03.194Z,84.60
2018-09-17T04:25:03.374Z,84.79
2018-09-17T04:26:03.557Z,84.12
2018-09-17T04:27:03.736Z,84.84
2018-09-17T04:28:03.911Z,84.31
2018-09-17T04:29:04.088Z,84.69
2018-09-17T04:30:04.271Z,84.50
2018-09-17T04:31:04.455Z,84.36
2018-09-17T04:32:04.685Z,84.56
2018-09-17T04:33:04.810Z,84.56
2018-09-17T04:34:04.914Z,84.75
2018-09-17T04:35:05.084Z,85.13
2018-09-17T04:36:05.260Z,85.41
2018-09-17T04:37:05.437Z,85.22
2018-09-17T04:38:05.619Z,84.84
2018-09-17T04:39:05.795Z,84.46
2018-09-17T04:40:05.987Z,84.65
2018-09-17T04:41:06.175Z,84.17
2018-09-17T04:42:06.359Z,84.75
2018-09-17T04:43:06.541Z,84.46
2018-09-17T04:44:06.718Z,84.17
2018-09-17T04:45:06.891Z,84.65
2018-09-17T04:46:07.073Z,84.08
2018-09-17T04:47:07.252Z,84.65
2018-09-17T04:48:07.432Z,84.56
2018-09-17T04:49:07.729Z,84.46
2018-09-17T04:50:07.791Z,84.65
2018-09-17T04:51:07.979Z,85.32
2018-09-17T04:52:08.160Z,84.75
2018-09-17T04:53:08.336Z,84.75
2018-09-17T04:54:08.509Z,84.46
2018-09-17T04:55:08.699Z,84.27
2018-09-17T04:56:08.892Z,84.27
2018-09-17T04:57:09.150Z,84.17
2018-09-17T04:58:09.187Z,84.17
2018-09-17T04:59:09.360Z,84.46
2018-09-17T05:00:09.570Z,84.65
2018-09-17T05:01:09.734Z,84.65
2018-09-17T05:02:09.930Z,84.75
2018-09-17T05:03:10.107Z,84.56
2018-09-17T05:04:10.284Z,84.84
2018-09-17T05:05:10.456Z,84.56
2018-09-17T05:06:10.630Z,84.75
2018-09-17T05:07:10.874Z,83.98
2018-09-17T05:08:10.994Z,84.46
2018-09-17T05:09:11.173Z,84.75
2018-09-17T05:10:11.353Z,84.75
2018-09-17T05:11:12.512Z,84.75
2018-09-17T05:12:11.675Z,84.46
2018-09-17T05:13:11.933Z,84.56
2018-09-17T05:14:12.042Z,84.84
2018-09-17T05:15:12.215Z,84.94
2018-09-17T05:16:12.384Z,84.65
2018-09-17T05:17:12.565Z,84.08
2018-09-17T05:18:12.739Z,84.17
2018-09-17T05:19:12.922Z,84.27
2018-09-17T05:20:13.114Z,84.17
2018-09-17T05:21:13.307Z,84.65
2018-09-17T05:22:13.482Z,85.32
2018-09-17T05:23:13.668Z,85.70
2018-09-17T05:24:13.836Z,85.60
2018-09-17T05:25:14.016Z,85.28
2018-09-17T05:26:14.198Z,85.47
2018-09-17T05:27:15.864Z,85.94
2018-09-17T05:28:16.073Z,85.37
2018-09-17T05:29:16.519Z,85.85
2018-09-17T05:30:14.978Z,85.80
2018-09-17T05:31:14.947Z,86.18
2018-09-17T05:32:15.127Z,85.75
2018-09-17T05:33:15.308Z,85.75
2018-09-17T05:34:15.475Z,85.85
2018-09-17T05:35:15.673Z,85.94
2018-09-17T05:36:15.848Z,86.22
2018-09-17T05:37:16.034Z,86.13
2018-09-17T05:38:16.202Z,85.85
2018-09-17T05:39:16.382Z,86.13
2018-09-17T05:40:16.556Z,85.75
2018-09-17T05:41:16.739Z,85.32
2018-09-17T05:42:16.918Z,85.22
2018-09-17T05:43:17.098Z,85.60
2018-09-17T05:44:17.357Z,85.99
2018-09-17T05:45:17.492Z,85.60
2018-09-17T05:46:17.675Z,85.60
2018-09-17T05:47:17.864Z,85.32
2018-09-17T05:48:18.055Z,85.13
2018-09-17T05:49:18.226Z,85.41
2018-09-17T05:50:18.409Z,85.22
2018-09-17T05:51:18.596Z,85.80
2018-09-17T05:52:18.789Z,85.41
2018-09-17T05:53:18.960Z,85.13
2018-09-17T05:54:19.146Z,85.13
2018-09-17T05:55:19.321Z,84.75
2018-09-17T05:56:19.501Z,84.56
2018-09-17T05:57:19.680Z,84.17
2018-09-17T05:58:19.859Z,84.36
2018-09-17T05:59:20.044Z,84.17
2018-09-17T06:00:20.211Z,84.41
2018-09-17T06:01:20.382Z,84.22
2018-09-17T06:02:20.560Z,83.93
2018-09-17T06:03:20.741Z,84.31
2018-09-17T06:04:20.916Z,83.65
2018-09-17T06:05:21.092Z,83.17
2018-09-17T06:06:21.265Z,83.17
2018-09-17T06:07:21.440Z,83.26
2018-09-17T06:08:21.619Z,83.45
2018-09-17T06:09:21.839Z,82.79
2018-09-17T06:10:21.927Z,83.02
2018-09-17T06:11:22.157Z,82.60
2018-09-17T06:12:22.306Z,82.26
2018-09-17T06:13:22.983Z,81.97
2018-09-17T06:14:22.664Z,82.17
2018-09-17T06:15:23.129Z,81.97
2018-09-17T06:16:23.052Z,82.17
2018-09-17T06:17:23.232Z,81.59
2018-09-17T06:18:23.396Z,81.59
2018-09-17T06:19:23.802Z,81.30
2018-09-17T06:20:24.090Z,80.92
2018-09-17T06:21:24.021Z,80.87
2018-09-17T06:22:24.131Z,80.01
2018-09-17T06:23:24.636Z,79.63
2018-09-17T06:24:27.756Z,79.00
2018-09-17T06:25:24.948Z,77.51
2018-09-17T06:26:26.200Z,76.03
2018-09-17T06:27:27.751Z,74.09
2018-09-17T06:28:25.141Z,71.73
2018-09-17T06:29:25.093Z,68.46
2018-09-17T06:30:25.264Z,66.22
2018-09-17T06:31:25.448Z,63.09
2018-09-17T06:32:25.618Z,60.66
2018-09-17T06:33:26.027Z,58.67
2018-09-17T06:34:25.985Z,57.75
2018-09-17T06:35:26.170Z,56.78
2018-09-17T06:36:26.512Z,55.56
2018-09-17T06:37:26.934Z,54.14
2018-09-17T06:38:26.698Z,53.28
2018-09-17T06:39:27.528Z,52.73
2018-09-17T06:40:27.222Z,51.79
2018-09-17T06:41:27.679Z,50.93
2018-09-17T06:42:28.003Z,50.63
2018-09-17T06:43:27.829Z,50.45
2018-09-17T06:44:28.081Z,50.63
2018-09-17T06:45:27.774Z,50.45
2018-09-17T06:46:27.949Z,50.15
2018-09-17T06:47:28.126Z,50.27
2018-09-17T06:48:28.325Z,49.79
2018-09-17T06:49:29.044Z,49.41
2018-09-17T06:50:28.729Z,48.76
2018-09-17T06:51:29.196Z,48.64
2018-09-17T06:52:29.016Z,49.51
2018-09-17T06:53:29.200Z,49.02
2018-09-17T06:54:29.375Z,49.02
2018-09-17T06:55:29.612Z,49.22
2018-09-17T06:56:29.664Z,49.99
2018-09-17T06:57:30.173Z,49.70
2018-09-17T06:58:30.227Z,50.06
2018-09-17T06:59:30.469Z,50.15
2018-09-17T07:00:30.672Z,49.96
2018-09-17T07:01:30.667Z,49.77
2018-09-17T07:02:31.548Z,50.25
2018-09-17T07:03:31.410Z,50.54
2018-09-17T07:04:31.692Z,50.45
2018-09-17T07:05:31.938Z,51.29
2018-09-17T07:06:31.390Z,51.98
2018-09-17T07:07:31.629Z,51.21
2018-09-17T07:08:31.786Z,51.02
2018-09-17T07:09:32.251Z,51.31
2018-09-17T07:10:32.182Z,51.34
2018-09-17T07:11:32.387Z,51.02
2018-09-17T07:12:32.608Z,51.02
2018-09-17T07:13:32.781Z,51.21
2018-09-17T07:14:33.047Z,51.21
2018-09-17T07:15:33.287Z,51.31
2018-09-17T07:16:33.274Z,51.50
2018-09-17T07:17:33.458Z,51.67
2018-09-17T07:18:33.644Z,52.63
2018-09-17T07:19:33.839Z,53.19
2018-09-17T07:20:34.025Z,53.21
2018-09-17T07:21:34.223Z,53.11
2018-09-17T07:22:34.404Z,53.47
2018-09-17T07:23:34.646Z,53.31
2018-09-17T07:24:34.860Z,54.34
2018-09-17T07:25:35.043Z,54.34
2018-09-17T07:26:36.271Z,55.27
2018-09-17T07:27:36.736Z,56.14
2018-09-17T07:28:37.399Z,56.04
2018-09-17T07:29:35.874Z,56.14
2018-09-17T07:30:35.998Z,56.71
2018-09-17T07:31:37.232Z,56.14
2018-09-17T07:32:36.637Z,55.85
2018-09-17T07:33:39.783Z,55.94
2018-09-17T07:34:37.445Z,56.33
2018-09-17T07:35:36.783Z,55.85
2018-09-17T07:36:40.035Z,56.14
2018-09-17T07:37:37.665Z,56.81
2018-09-17T07:38:38.659Z,56.04
2018-09-17T07:39:39.407Z,56.43
2018-09-17T07:40:37.996Z,55.85
2018-09-17T07:41:39.605Z,55.11
2018-09-17T07:42:38.338Z,55.01
2018-09-17T07:43:38.749Z,54.43
2018-09-17T07:44:38.692Z,54.63
2018-09-17T07:45:40.123Z,55.01
2018-09-17T07:46:38.664Z,54.85
2018-09-17T07:47:41.282Z,54.82
2018-09-17T07:48:40.275Z,54.72
2018-09-17T07:49:39.003Z,55.04
2018-09-17T07:50:39.355Z,54.49
2018-09-17T07:51:39.310Z,54.39
2018-09-17T07:52:39.997Z,53.74
2018-09-17T07:53:39.913Z,52.78
2018-09-17T07:54:40.607Z,52.40
2018-09-17T07:55:41.038Z,52.69
2018-09-17T07:56:40.402Z,52.69
2018-09-17T07:57:40.218Z,52.33
2018-09-17T07:58:40.310Z,52.30
2018-09-17T07:59:41.305Z,52.61
2018-09-17T08:00:40.644Z,52.52
2018-09-17T08:01:40.824Z,51.65
2018-09-17T08:02:41.705Z,51.94
2018-09-17T08:03:41.219Z,51.20
2018-09-17T08:04:41.420Z,51.29
2018-09-17T08:05:41.796Z,50.93
2018-09-17T08:06:41.809Z,50.54
2018-09-17T08:07:41.986Z,49.87
2018-09-17T08:08:42.163Z,49.90
2018-09-17T08:09:42.375Z,49.34
2018-09-17T08:10:44.484Z,48.95
2018-09-17T08:11:42.665Z,47.89
2018-09-17T08:12:43.090Z,48.11
2018-09-17T08:13:43.140Z,47.45
2018-09-17T08:14:43.623Z,47.07
2018-09-17T08:15:43.490Z,47.26
2018-09-17T08:16:43.842Z,46.10
2018-09-17T08:17:44.435Z,46.58
2018-09-17T08:18:44.104Z,46.49
2018-09-17T08:19:44.409Z,46.10
2018-09-17T08:20:44.885Z,46.30
2018-09-17T08:21:44.588Z,46.10
2018-09-17T08:22:44.646Z,46.20
2018-09-17T08:23:44.635Z,46.56
2018-09-17T08:24:44.727Z,47.24
2018-09-17T08:25:44.935Z,47.99
2018-09-17T08:26:45.117Z,47.89
2018-09-17T08:27:45.705Z,48.86
2018-09-17T08:28:45.549Z,48.95
2018-09-17T08:29:45.617Z,48.83
2018-09-17T08:30:45.793Z,49.22
2018-09-17T08:31:45.986Z,50.09
2018-09-17T08:32:46.170Z,50.28
2018-09-17T08:33:46.338Z,49.80
2018-09-17T08:34:46.524Z,50.35
2018-09-17T08:35:46.708Z,50.35
2018-09-17T08:36:46.883Z,50.54
2018-09-17T08:37:47.066Z,51.12
2018-09-17T08:38:47.271Z,51.39
2018-09-17T08:39:47.442Z,51.80
2018-09-17T08:40:47.635Z,51.61
2018-09-17T08:41:47.864Z,51.32
2018-09-17T08:42:48.021Z,50.96
2018-09-17T08:43:48.540Z,50.67
2018-09-17T08:44:49.922Z,50.89
2018-09-17T08:45:48.541Z,50.18
2018-09-17T08:46:48.623Z,50.57
2018-09-17T08:47:48.802Z,50.38
2018-09-17T08:48:48.992Z,50.67
2018-09-17T08:49:49.160Z,50.86
2018-09-17T08:50:49.337Z,51.25
2018-09-17T08:51:50.810Z,51.15
2018-09-17T08:52:50.939Z,50.96
2018-09-17T08:53:51.004Z,51.63
2018-09-17T08:54:49.955Z,51.73
2018-09-17T08:55:50.126Z,51.25
2018-09-17T08:56:50.301Z,51.15
2018-09-17T08:57:50.483Z,52.21
2018-09-17T08:58:51.453Z,51.63
2018-09-17T08:59:52.696Z,50.76
2018-09-17T09:00:51.034Z,50.67
2018-09-17T09:01:51.197Z,50.50
2018-09-17T09:02:51.374Z,49.37
2018-09-17T09:03:51.566Z,48.88
2018-09-17T09:04:51.743Z,48.81
2018-09-17T09:05:51.972Z,48.06
2018-09-17T09:06:52.032Z,46.92
2018-09-17T09:07:52.280Z,45.59
2018-09-17T09:08:52.932Z,44.67
2018-09-17T09:09:52.702Z,44.30
2018-09-17T09:10:53.826Z,43.06
2018-09-17T09:11:52.997Z,42.69
2018-09-17T09:12:52.930Z,41.43
2018-09-17T09:13:53.231Z,41.63
2018-09-17T09:14:53.340Z,41.47
2018-09-17T09:15:53.412Z,40.81
2018-09-17T09:16:53.599Z,40.15
2018-09-17T09:17:53.782Z,38.79
2018-09-17T09:18:53.982Z,38.89
2018-09-17T09:19:54.159Z,38.54
2018-09-17T09:20:54.459Z,38.54
2018-09-17T09:21:54.582Z,37.95
2018-09-17T09:22:54.658Z,37.39
2018-09-17T09:23:54.840Z,36.90
2018-09-17T09:24:55.048Z,36.92
2018-09-17T09:25:55.210Z,36.51
2018-09-17T09:26:55.969Z,35.94
2018-09-17T09:27:56.601Z,35.96
2018-09-17T09:28:56.190Z,35.28
2018-09-17T09:29:57.607Z,34.52
2018-09-17T09:30:56.177Z,34.31
2018-09-17T09:31:56.327Z,34.22
2018-09-17T09:32:56.516Z,34.34
2018-09-17T09:33:56.700Z,34.05
2018-09-17T09:34:56.878Z,34.45
2018-09-17T09:35:57.062Z,33.89
2018-09-17T09:36:57.255Z,33.51
2018-09-17T09:37:57.437Z,32.73
2018-09-17T09:38:57.633Z,32.92
2018-09-17T09:39:57.840Z,32.62
2018-09-17T09:40:58.042Z,32.91
2018-09-17T09:42:00.078Z,32.24
2018-09-17T09:42:58.450Z,31.85
2018-09-17T09:43:58.633Z,32.06
2018-09-17T09:44:58.840Z,31.77
2018-09-17T09:45:59.013Z,31.78
2018-09-17T09:46:59.193Z,31.98
2018-09-17T09:48:00.450Z,31.49
2018-09-17T09:48:59.553Z,31.60
2018-09-17T09:49:59.748Z,31.11
2018-09-17T09:50:59.991Z,30.62
2018-09-17T09:52:00.135Z,30.25
2018-09-17T09:53:00.312Z,30.65
2018-09-17T09:54:00.615Z,30.57
2018-09-17T09:55:00.644Z,29.80
2018-09-17T09:56:00.835Z,29.31
2018-09-17T09:57:04.496Z,29.22
2018-09-17T09:58:01.552Z,29.03
2018-09-17T09:59:02.396Z,28.85
2018-09-17T10:00:04.904Z,28.57
2018-09-17T10:01:01.848Z,27.31
2018-09-17T10:02:03.124Z,26.81
2018-09-17T10:03:02.244Z,27.42
2018-09-17T10:04:06.835Z,26.91
2018-09-17T10:05:05.686Z,27.04
2018-09-17T10:06:03.877Z,26.63
2018-09-17T10:07:02.955Z,26.05
2018-09-17T10:08:03.168Z,25.56
2018-09-17T10:09:03.368Z,24.68
2018-09-17T10:10:03.576Z,24.65
2018-09-17T10:11:03.807Z,24.77
2018-09-17T10:12:04.791Z,24.69
2018-09-17T10:13:04.119Z,24.91
2018-09-17T10:14:04.309Z,24.12
2018-09-17T10:15:04.507Z,24.04
2018-09-17T10:16:04.702Z,23.83
2018-09-17T10:17:05.007Z,23.93
2018-09-17T10:18:05.130Z,24.12
2018-09-17T10:19:05.348Z,24.13
2018-09-17T10:20:05.548Z,24.34
2018-09-17T10:21:05.745Z,24.35
2018-09-17T10:22:05.967Z,23.37
2018-09-17T10:23:06.143Z,23.47
2018-09-17T10:24:06.363Z,23.75
2018-09-17T10:25:06.553Z,23.08
2018-09-17T10:26:06.783Z,22.77
2018-09-17T10:27:06.942Z,22.77
2018-09-17T10:28:07.167Z,23.15
2018-09-17T10:29:07.403Z,23.05
2018-09-17T10:30:07.488Z,23.73
2018-09-17T10:31:07.688Z,23.55
2018-09-17T10:32:07.889Z,23.57
2018-09-17T10:33:08.129Z,23.57
2018-09-17T10:34:08.310Z,24.07
2018-09-17T10:35:08.484Z,23.37
2018-09-17T10:36:08.686Z,23.27
2018-09-17T10:37:08.875Z,24.23
2018-09-17T10:38:09.076Z,23.47
2018-09-17T10:39:09.261Z,23.57
2018-09-17T10:40:09.478Z,23.18
2018-09-17T10:41:09.655Z,22.89
2018-09-17T10:42:09.849Z,22.60
2018-09-17T10:43:10.041Z,22.41
2018-09-17T10:44:10.239Z,22.89
2018-09-17T10:45:10.469Z,23.10
2018-09-17T10:46:10.621Z,23.57
2018-09-17T10:47:10.824Z,23.95
2018-09-17T10:48:11.011Z,23.95
2018-09-17T10:49:11.202Z,24.24
2018-09-17T10:50:11.412Z,24.26
2018-09-17T10:51:16.114Z,23.27
2018-09-17T10:52:11.728Z,23.38
2018-09-17T10:53:11.918Z,23.57
2018-09-17T10:54:12.112Z,23.97
2018-09-17T10:55:12.311Z,23.77
2018-09-17T10:56:12.498Z,22.99
2018-09-17T10:57:12.736Z,22.59
2018-09-17T10:58:12.883Z,22.80
2018-09-17T10:59:13.063Z,23.00
2018-09-17T11:00:13.263Z,22.60
2018-09-17T11:01:13.465Z,22.22
2018-09-17T11:02:14.563Z,22.51
2018-09-17T11:03:13.893Z,23.10
2018-09-17T11:04:14.084Z,21.98
2018-09-17T11:05:14.301Z,22.19
2018-09-17T11:06:15.724Z,22.11
2018-09-17T11:07:14.692Z,22.20
2018-09-17T11:08:14.933Z,22.12
2018-09-17T11:09:15.143Z,21.60
2018-09-17T11:10:15.209Z,21.51
2018-09-17T11:11:15.425Z,22.41
2018-09-17T11:12:15.632Z,22.09
2018-09-17T11:13:15.826Z,21.60
2018-09-17T11:14:16.155Z,21.90
2018-09-17T11:15:16.245Z,21.71
2018-09-17T11:16:16.428Z,21.81
2018-09-17T11:17:16.668Z,21.81
2018-09-17T11:18:16.825Z,21.71
2018-09-17T11:19:17.012Z,21.91
2018-09-17T11:20:17.201Z,22.20
2018-09-17T11:21:23.175Z,21.71
2018-09-17T11:22:20.020Z,21.82
2018-09-17T11:23:18.996Z,21.61
2018-09-17T11:24:19.982Z,21.92
2018-09-17T11:25:19.696Z,21.92
2018-09-17T11:26:19.208Z,21.92
2018-09-17T11:27:20.108Z,21.92
2018-09-17T11:28:20.746Z,21.64
2018-09-17T11:29:19.672Z,21.83
2018-09-17T11:30:19.952Z,21.93
2018-09-17T11:31:20.756Z,21.62
2018-09-17T11:32:20.465Z,22.01
2018-09-17T11:33:20.071Z,21.70
2018-09-17T11:34:21.416Z,21.41
2018-09-17T11:35:20.089Z,21.41
2018-09-17T11:36:20.196Z,21.41
2018-09-17T11:37:20.446Z,21.70
2018-09-17T11:38:20.520Z,21.80
2018-09-17T11:39:22.105Z,21.90
2018-09-17T11:40:20.983Z,21.70
2018-09-17T11:41:21.500Z,21.70
2018-09-17T11:42:21.264Z,21.90
2018-09-17T11:43:21.488Z,21.39
2018-09-17T11:44:22.753Z,21.60
2018-09-17T11:45:22.247Z,21.11
2018-09-17T11:46:22.409Z,20.62
2018-09-17T11:47:25.586Z,21.30
2018-09-17T11:48:25.202Z,21.59
2018-09-17T11:49:23.908Z,21.78
2018-09-17T11:50:25.312Z,21.97
2018-09-17T11:51:26.805Z,22.16
2018-09-17T11:52:25.114Z,22.85
2018-09-17T11:53:25.108Z,22.95
2018-09-17T11:54:26.935Z,22.25
2018-09-17T11:55:26.292Z,22.66
2018-09-17T11:56:25.102Z,22.67
2018-09-17T11:57:27.043Z,23.54
2018-09-17T11:58:25.164Z,22.95
2018-09-17T11:59:24.967Z,22.94
2018-09-17T12:00:27.015Z,23.31
2018-09-17T12:01:26.031Z,23.41
2018-09-17T12:02:26.986Z,23.20
2018-09-17T12:03:28.989Z,23.60
2018-09-17T12:04:27.231Z,24.17
2018-09-17T12:05:27.614Z,24.66
2018-09-17T12:06:25.368Z,24.37
2018-09-17T12:07:25.613Z,24.17
2018-09-17T12:08:25.751Z,24.46
2018-09-17T12:09:25.942Z,24.95
2018-09-17T12:10:26.128Z,25.43
2018-09-17T12:11:26.313Z,26.20
2018-09-17T12:12:26.504Z,26.09
2018-09-17T12:13:26.695Z,26.38
2018-09-17T12:14:26.935Z,26.67
2018-09-17T12:15:27.136Z,27.04
2018-09-17T12:16:27.193Z,27.81
2018-09-17T12:17:27.380Z,27.31
2018-09-17T12:18:27.565Z,27.40
2018-09-17T12:19:27.744Z,27.49
2018-09-17T12:20:27.937Z,27.88
2018-09-17T12:21:28.117Z,28.36
2018-09-17T12:22:28.309Z,28.26
2018-09-17T12:23:28.546Z,28.74
2018-09-17T12:24:28.716Z,28.83
2018-09-17T12:25:28.903Z,29.70
2018-09-17T12:26:29.084Z,29.50
2018-09-17T12:27:29.265Z,29.70
2018-09-17T12:28:29.464Z,29.98
2018-09-17T12:29:29.646Z,30.29
2018-09-17T12:30:30.130Z,29.98
2018-09-17T12:31:30.087Z,30.57
2018-09-17T12:32:30.263Z,30.76
2018-09-17T12:33:35.697Z,30.74
2018-09-17T12:34:30.632Z,30.66
2018-09-17T12:35:30.815Z,30.76
2018-09-17T12:36:31.042Z,30.57
2018-09-17T12:37:34.693Z,30.66
2018-09-17T12:38:31.333Z,30.96
2018-09-17T12:39:31.522Z,30.65
2018-09-17T12:40:31.709Z,29.57
2018-09-17T12:41:31.890Z,29.67
2018-09-17T12:42:32.074Z,30.16
2018-09-17T12:43:32.252Z,30.55
2018-09-17T12:44:32.976Z,30.63
2018-09-17T12:45:32.601Z,30.34
2018-09-17T12:46:32.818Z,30.42
2018-09-17T12:47:32.995Z,30.81
2018-09-17T12:48:33.294Z,31.10
2018-09-17T12:49:33.608Z,31.01
2018-09-17T12:50:33.601Z,30.93
2018-09-17T12:51:33.575Z,30.52
2018-09-17T12:52:33.756Z,30.62
2018-09-17T12:53:34.074Z,30.81
2018-09-17T12:54:34.174Z,31.09